sensor_id;sensor_type;location;lat;lon;timestamp;pressure;altitude;pressure_sealevel;temperature;humidity
26489;BME280;14169;43.684;10.484;2023-02-17T00:09:14;103124.91;;;9.69;100.00
26489;BME280;14169;43.684;10.484;2023-02-17T00:11:40;103121.44;;;9.67;100.00
26489;BME280;14169;43.684;10.484;2023-02-17T00:14:05;103124.03;;;9.66;100.00
26489;BME280;14169;43.684;10.484;2023-02-17T00:16:32;103118.81;;;9.66;100.00
26489;BME280;14169;43.684;10.484;2023-02-17T00:19:00;103108.28;;;9.55;100.00
26489;BME280;14169;43.684;10.484;2023-02-17T00:21:30;103109.97;;;9.50;100.00
26489;BME280;14169;43.684;10.484;2023-02-17T00:23:57;103110.00;;;9.52;100.00
26489;BME280;14169;43.684;10.484;2023-02-17T00:26:22;103115.22;;;9.53;100.00
26489;BME280;14169;43.684;10.484;2023-02-17T00:28:49;103110.88;;;9.54;100.00
26489;BME280;14169;43.684;10.484;2023-02-17T00:31:17;103111.72;;;9.53;100.00
26489;BME280;14169;43.684;10.484;2023-02-17T00:33:43;103117.75;;;9.50;100.00
26489;BME280;14169;43.684;10.484;2023-02-17T00:36:11;103111.72;;;9.50;100.00
26489;BME280;14169;43.684;10.484;2023-02-17T00:38:37;103113.44;;;9.49;100.00
26489;BME280;14169;43.684;10.484;2023-02-17T00:41:02;103117.75;;;9.46;100.00
26489;BME280;14169;43.684;10.484;2023-02-17T00:43:28;103117.69;;;9.43;100.00
26489;BME280;14169;43.684;10.484;2023-02-17T00:45:53;103115.97;;;9.43;100.00
26489;BME280;14169;43.684;10.484;2023-02-17T00:48:19;103131.53;;;9.40;100.00
26489;BME280;14169;43.684;10.484;2023-02-17T00:50:45;103124.63;;;9.42;100.00
26489;BME280;14169;43.684;10.484;2023-02-17T00:53:11;103122.00;;;9.42;100.00
26489;BME280;14169;43.684;10.484;2023-02-17T00:55:36;103109.94;;;9.46;100.00
26489;BME280;14169;43.684;10.484;2023-02-17T00:58:02;103103.88;;;9.48;100.00
26489;BME280;14169;43.684;10.484;2023-02-17T01:00:27;103114.31;;;9.51;100.00
26489;BME280;14169;43.684;10.484;2023-02-17T01:02:52;103106.50;;;9.50;100.00
26489;BME280;14169;43.684;10.484;2023-02-17T01:05:18;103105.63;;;9.49;100.00
26489;BME280;14169;43.684;10.484;2023-02-17T01:07:44;103114.25;;;9.45;100.00
26489;BME280;14169;43.684;10.484;2023-02-17T01:10:09;103111.66;;;9.44;100.00
26489;BME280;14169;43.684;10.484;2023-02-17T01:12:35;103105.56;;;9.43;100.00
26489;BME280;14169;43.684;10.484;2023-02-17T01:15:00;103102.97;;;9.43;100.00
26489;BME280;14169;43.684;10.484;2023-02-17T01:17:26;103108.16;;;9.45;100.00
26489;BME280;14169;43.684;10.484;2023-02-17T01:36:46;103105.63;;;9.48;100.00
26489;BME280;14169;43.684;10.484;2023-02-17T01:39:13;103102.97;;;9.46;100.00
26489;BME280;14169;43.684;10.484;2023-02-17T01:41:38;103106.47;;;9.48;100.00
26489;BME280;14169;43.684;10.484;2023-02-17T01:44:13;103104.75;;;9.49;100.00
26489;BME280;14169;43.684;10.484;2023-02-17T01:46:44;103100.38;;;9.46;100.00
26489;BME280;14169;43.684;10.484;2023-02-17T01:49:24;103096.88;;;9.43;100.00
26489;BME280;14169;43.684;10.484;2023-02-17T01:52:16;103095.91;;;9.33;100.00
26489;BME280;14169;43.684;10.484;2023-02-17T01:54:51;103088.03;;;9.27;100.00
26489;BME280;14169;43.684;10.484;2023-02-17T01:57:21;103090.66;;;9.27;100.00
26489;BME280;14169;43.684;10.484;2023-02-17T01:59:48;103080.19;;;9.24;100.00
26489;BME280;14169;43.684;10.484;2023-02-17T02:02:14;103071.53;;;9.23;100.00
26489;BME280;14169;43.684;10.484;2023-02-17T02:04:42;103080.22;;;9.26;100.00
26489;BME280;14169;43.684;10.484;2023-02-17T02:07:13;103072.38;;;9.24;100.00
26489;BME280;14169;43.684;10.484;2023-02-17T02:09:46;103063.75;;;9.23;100.00
26489;BME280;14169;43.684;10.484;2023-02-17T02:12:29;103058.53;;;9.25;100.00
26489;BME280;14169;43.684;10.484;2023-02-17T02:14:58;103067.19;;;9.24;100.00
26489;BME280;14169;43.684;10.484;2023-02-17T02:26:16;103058.47;;;9.16;100.00
26489;BME280;14169;43.684;10.484;2023-02-17T02:34:12;103060.94;;;9.05;100.00
26489;BME280;14169;43.684;10.484;2023-02-17T02:36:47;103063.41;;;8.99;100.00
26489;BME280;14169;43.684;10.484;2023-02-17T02:39:17;103055.53;;;8.92;100.00
26489;BME280;14169;43.684;10.484;2023-02-17T02:41:46;103058.97;;;8.91;100.00
26489;BME280;14169;43.684;10.484;2023-02-17T02:44:16;103050.28;;;8.90;100.00
26489;BME280;14169;43.684;10.484;2023-02-17T02:46:42;103055.47;;;8.89;100.00
26489;BME280;14169;43.684;10.484;2023-02-17T02:49:08;103050.28;;;8.89;100.00
26489;BME280;14169;43.684;10.484;2023-02-17T02:57:21;103045.00;;;8.81;100.00
26489;BME280;14169;43.684;10.484;2023-02-17T03:03:14;103047.53;;;8.77;100.00
26489;BME280;14169;43.684;10.484;2023-02-17T03:05:46;103037.06;;;8.71;100.00
26489;BME280;14169;43.684;10.484;2023-02-17T03:08:26;103037.03;;;8.68;100.00
26489;BME280;14169;43.684;10.484;2023-02-17T03:10:53;103030.97;;;8.67;100.00
26489;BME280;14169;43.684;10.484;2023-02-17T03:13:20;103037.88;;;8.68;100.00
26489;BME280;14169;43.684;10.484;2023-02-17T03:15:46;103037.88;;;8.68;100.00
26489;BME280;14169;43.684;10.484;2023-02-17T03:18:12;103036.16;;;8.67;100.00
26489;BME280;14169;43.684;10.484;2023-02-17T03:20:53;103030.91;;;8.64;100.00
26489;BME280;14169;43.684;10.484;2023-02-17T03:23:20;103036.09;;;8.63;100.00
26489;BME280;14169;43.684;10.484;2023-02-17T03:25:46;103035.19;;;8.59;100.00
26489;BME280;14169;43.684;10.484;2023-02-17T03:28:12;103034.31;;;8.60;100.00
26489;BME280;14169;43.684;10.484;2023-02-17T03:30:38;103034.38;;;8.62;100.00
26489;BME280;14169;43.684;10.484;2023-02-17T03:33:03;103034.38;;;8.63;100.00
26489;BME280;14169;43.684;10.484;2023-02-17T03:35:29;103029.09;;;8.59;100.00
26489;BME280;14169;43.684;10.484;2023-02-17T03:37:54;103040.31;;;8.56;100.00
26489;BME280;14169;43.684;10.484;2023-02-17T03:40:20;103032.53;;;8.56;100.00
26489;BME280;14169;43.684;10.484;2023-02-17T03:42:45;103039.47;;;8.54;100.00
26489;BME280;14169;43.684;10.484;2023-02-17T03:45:10;103034.28;;;8.54;100.00
26489;BME280;14169;43.684;10.484;2023-02-17T03:47:36;103038.53;;;8.51;100.00
26489;BME280;14169;43.684;10.484;2023-02-17T03:50:01;103039.41;;;8.50;100.00
26489;BME280;14169;43.684;10.484;2023-02-17T03:52:27;103042.81;;;8.46;100.00
26489;BME280;14169;43.684;10.484;2023-02-17T03:54:52;103035.84;;;8.43;100.00
26489;BME280;14169;43.684;10.484;2023-02-17T03:57:18;103045.31;;;8.39;100.00
26489;BME280;14169;43.684;10.484;2023-02-17T03:59:43;103043.53;;;8.37;100.00
26489;BME280;14169;43.684;10.484;2023-02-17T04:02:08;103041.75;;;8.34;100.00
26489;BME280;14169;43.684;10.484;2023-02-17T04:04:34;103041.81;;;8.36;100.00
26489;BME280;14169;43.684;10.484;2023-02-17T04:07:00;103048.72;;;8.34;100.00
26489;BME280;14169;43.684;10.484;2023-02-17T04:09:26;103045.22;;;8.32;100.00
26489;BME280;14169;43.684;10.484;2023-02-17T04:11:51;103055.56;;;8.30;100.00
26489;BME280;14169;43.684;10.484;2023-02-17T04:14:16;103047.72;;;8.26;100.00
26489;BME280;14169;43.684;10.484;2023-02-17T04:16:42;103039.97;;;8.30;100.00
26489;BME280;14169;43.684;10.484;2023-02-17T04:19:07;103050.34;;;8.29;100.00
26489;BME280;14169;43.684;10.484;2023-02-17T04:21:33;103044.22;;;8.24;100.00
26489;BME280;14169;43.684;10.484;2023-02-17T04:24:00;103039.88;;;8.23;100.00
26489;BME280;14169;43.684;10.484;2023-02-17T04:26:26;103039.84;;;8.21;100.00
26489;BME280;14169;43.684;10.484;2023-02-17T04:28:51;103041.59;;;8.22;100.00
26489;BME280;14169;43.684;10.484;2023-02-17T04:31:17;103047.66;;;8.21;100.00
26489;BME280;14169;43.684;10.484;2023-02-17T04:33:42;103049.38;;;8.22;100.00
26489;BME280;14169;43.684;10.484;2023-02-17T04:36:08;103048.47;;;8.20;100.00
26489;BME280;14169;43.684;10.484;2023-02-17T04:38:33;103056.25;;;8.19;100.00
26489;BME280;14169;43.684;10.484;2023-02-17T04:41:00;103055.34;;;8.17;100.00
26489;BME280;14169;43.684;10.484;2023-02-17T04:43:27;103055.38;;;8.18;100.00
26489;BME280;14169;43.684;10.484;2023-02-17T04:45:52;103057.06;;;8.16;100.00
26489;BME280;14169;43.684;10.484;2023-02-17T04:48:18;103044.91;;;8.12;100.00
26489;BME280;14169;43.684;10.484;2023-02-17T04:50:44;103046.56;;;8.07;100.00
26489;BME280;14169;43.684;10.484;2023-02-17T04:53:10;103051.69;;;8.04;100.00
26489;BME280;14169;43.684;10.484;2023-02-17T04:55:35;103051.75;;;8.06;100.00
26489;BME280;14169;43.684;10.484;2023-02-17T04:58:01;103055.97;;;8.01;100.00
26489;BME280;14169;43.684;10.484;2023-02-17T05:00:26;103059.53;;;8.07;100.00
26489;BME280;14169;43.684;10.484;2023-02-17T05:02:51;103055.25;;;8.11;100.00
26489;BME280;14169;43.684;10.484;2023-02-17T05:05:17;103060.53;;;8.15;100.00
26489;BME280;14169;43.684;10.484;2023-02-17T05:07:44;103063.97;;;8.14;100.00
26489;BME280;14169;43.684;10.484;2023-02-17T05:10:11;103059.63;;;8.13;100.00
26489;BME280;14169;43.684;10.484;2023-02-17T05:12:37;103057.88;;;8.12;100.00
26489;BME280;14169;43.684;10.484;2023-02-17T05:15:03;103052.72;;;8.14;100.00
26489;BME280;14169;43.684;10.484;2023-02-17T05:17:28;103046.69;;;8.16;100.00
26489;BME280;14169;43.684;10.484;2023-02-17T05:19:54;103040.59;;;8.13;100.00
26489;BME280;14169;43.684;10.484;2023-02-17T05:22:19;103038.88;;;8.13;100.00
26489;BME280;14169;43.684;10.484;2023-02-17T05:24:44;103036.28;;;8.15;100.00
26489;BME280;14169;43.684;10.484;2023-02-17T05:27:10;103039.78;;;8.18;100.00
26489;BME280;14169;43.684;10.484;2023-02-17T05:29:35;103031.16;;;8.19;100.00
26489;BME280;14169;43.684;10.484;2023-02-17T05:32:01;103032.00;;;8.17;100.00
26489;BME280;14169;43.684;10.484;2023-02-17T05:34:26;103034.59;;;8.17;100.00
26489;BME280;14169;43.684;10.484;2023-02-17T05:36:51;103040.69;;;8.19;100.00
26489;BME280;14169;43.684;10.484;2023-02-17T05:39:17;103051.13;;;8.22;100.00
26489;BME280;14169;43.684;10.484;2023-02-17T05:41:42;103048.56;;;8.25;100.00
26489;BME280;14169;43.684;10.484;2023-02-17T05:44:08;103045.97;;;8.26;100.00
26489;BME280;14169;43.684;10.484;2023-02-17T05:46:33;103050.34;;;8.30;100.00
26489;BME280;14169;43.684;10.484;2023-02-17T05:48:59;103047.81;;;8.32;100.00
26489;BME280;14169;43.684;10.484;2023-02-17T05:51:24;103041.75;;;8.31;100.00
26489;BME280;14169;43.684;10.484;2023-02-17T05:53:50;103048.66;;;8.31;100.00
26489;BME280;14169;43.684;10.484;2023-02-17T05:56:15;103050.34;;;8.30;100.00
26489;BME280;14169;43.684;10.484;2023-02-17T05:58:40;103052.97;;;8.30;100.00
26489;BME280;14169;43.684;10.484;2023-02-17T06:01:08;103058.09;;;8.26;100.00
26489;BME280;14169;43.684;10.484;2023-02-17T06:03:33;103062.41;;;8.24;100.00
26489;BME280;14169;43.684;10.484;2023-02-17T06:05:59;103065.00;;;8.24;100.00
26489;BME280;14169;43.684;10.484;2023-02-17T06:08:24;103066.72;;;8.25;100.00
26489;BME280;14169;43.684;10.484;2023-02-17T06:10:51;103071.94;;;8.25;100.00
26489;BME280;14169;43.684;10.484;2023-02-17T06:13:17;103073.63;;;8.24;100.00
26489;BME280;14169;43.684;10.484;2023-02-17T06:15:42;103080.63;;;8.28;100.00
26489;BME280;14169;43.684;10.484;2023-02-17T06:18:08;103079.63;;;8.19;100.00
26489;BME280;14169;43.684;10.484;2023-02-17T06:20:33;103093.31;;;8.10;100.00
26489;BME280;14169;43.684;10.484;2023-02-17T06:22:59;103087.19;;;8.04;100.00
26489;BME280;14169;43.684;10.484;2023-02-17T06:25:24;103088.91;;;8.05;100.00
26489;BME280;14169;43.684;10.484;2023-02-17T06:27:50;103092.50;;;8.11;100.00
26489;BME280;14169;43.684;10.484;2023-02-17T06:30:15;103093.47;;;8.18;100.00
26489;BME280;14169;43.684;10.484;2023-02-17T06:32:42;103095.28;;;8.23;100.00
26489;BME280;14169;43.684;10.484;2023-02-17T06:35:07;103113.38;;;8.19;100.00
26489;BME280;14169;43.684;10.484;2023-02-17T06:37:33;103114.09;;;8.10;100.00
26489;BME280;14169;43.684;10.484;2023-02-17T06:39:58;103111.47;;;8.07;100.00
26489;BME280;14169;43.684;10.484;2023-02-17T06:42:23;103103.69;;;8.09;100.00
26489;BME280;14169;43.684;10.484;2023-02-17T06:44:49;103112.38;;;8.12;100.00
26489;BME280;14169;43.684;10.484;2023-02-17T06:47:14;103106.41;;;8.16;100.00
26489;BME280;14169;43.684;10.484;2023-02-17T06:49:40;103113.38;;;8.19;100.00
26489;BME280;14169;43.684;10.484;2023-02-17T06:52:05;103110.84;;;8.23;100.00
26489;BME280;14169;43.684;10.484;2023-02-17T06:54:31;103116.97;;;8.28;100.00
26489;BME280;14169;43.684;10.484;2023-02-17T06:56:56;103123.13;;;8.32;100.00
26489;BME280;14169;43.684;10.484;2023-02-17T06:59:22;103119.66;;;8.34;100.00
26489;BME280;14169;43.684;10.484;2023-02-17T07:01:48;103119.75;;;8.40;100.00
26489;BME280;14169;43.684;10.484;2023-02-17T07:04:14;103120.72;;;8.46;100.00
26489;BME280;14169;43.684;10.484;2023-02-17T07:06:40;103128.53;;;8.47;100.00
26489;BME280;14169;43.684;10.484;2023-02-17T07:09:05;103129.34;;;8.45;100.00
26489;BME280;14169;43.684;10.484;2023-02-17T07:11:31;103131.16;;;8.49;100.00
26489;BME280;14169;43.684;10.484;2023-02-17T07:13:58;103126.91;;;8.52;100.00
26489;BME280;14169;43.684;10.484;2023-02-17T07:16:24;103131.25;;;8.56;100.00
26489;BME280;14169;43.684;10.484;2023-02-17T07:18:50;103123.53;;;8.59;100.00
26489;BME280;14169;43.684;10.484;2023-02-17T07:21:15;103120.03;;;8.59;100.00
26489;BME280;14169;43.684;10.484;2023-02-17T07:23:41;103119.13;;;8.55;100.00
26489;BME280;14169;43.684;10.484;2023-02-17T07:26:08;103128.72;;;8.59;100.00
26489;BME280;14169;43.684;10.484;2023-02-17T07:28:35;103121.81;;;8.61;100.00
26489;BME280;14169;43.684;10.484;2023-02-17T07:33:31;103119.31;;;8.67;100.00
26489;BME280;14169;43.684;10.484;2023-02-17T07:35:57;103124.53;;;8.70;100.00
26489;BME280;14169;43.684;10.484;2023-02-17T07:38:22;103125.41;;;8.71;100.00
26489;BME280;14169;43.684;10.484;2023-02-17T07:40:47;103122.81;;;8.71;100.00
26489;BME280;14169;43.684;10.484;2023-02-17T07:43:13;103129.78;;;8.73;100.00
26489;BME280;14169;43.684;10.484;2023-02-17T07:45:38;103128.03;;;8.72;100.00
26489;BME280;14169;43.684;10.484;2023-02-17T07:48:04;103121.97;;;8.72;100.00
26489;BME280;14169;43.684;10.484;2023-02-17T07:50:29;103130.59;;;8.71;100.00
26489;BME280;14169;43.684;10.484;2023-02-17T07:52:55;103133.22;;;8.71;100.00
26489;BME280;14169;43.684;10.484;2023-02-17T07:55:20;103134.09;;;8.73;100.00
26489;BME280;14169;43.684;10.484;2023-02-17T07:57:45;103140.22;;;8.76;100.00
26489;BME280;14169;43.684;10.484;2023-02-17T08:00:11;103142.78;;;8.73;100.00
26489;BME280;14169;43.684;10.484;2023-02-17T08:02:37;103146.28;;;8.75;100.00
26489;BME280;14169;43.684;10.484;2023-02-17T08:05:02;103141.06;;;8.75;100.00
26489;BME280;14169;43.684;10.484;2023-02-17T08:07:28;103140.25;;;8.78;100.00
26489;BME280;14169;43.684;10.484;2023-02-17T08:09:54;103146.34;;;8.80;100.00
26489;BME280;14169;43.684;10.484;2023-02-17T08:12:38;103142.00;;;8.80;100.00
26489;BME280;14169;43.684;10.484;2023-02-17T08:15:22;103141.97;;;8.76;100.00
26489;BME280;14169;43.684;10.484;2023-02-17T08:17:47;103149.72;;;8.74;100.00
26489;BME280;14169;43.684;10.484;2023-02-17T08:20:12;103148.78;;;8.71;100.00
26489;BME280;14169;43.684;10.484;2023-02-17T08:22:39;103155.78;;;8.73;100.00
26489;BME280;14169;43.684;10.484;2023-02-17T08:25:05;103154.91;;;8.74;100.00
26489;BME280;14169;43.684;10.484;2023-02-17T08:27:31;103154.88;;;8.70;100.00
26489;BME280;14169;43.684;10.484;2023-02-17T08:29:56;103154.88;;;8.71;100.00
26489;BME280;14169;43.684;10.484;2023-02-17T08:32:22;103161.78;;;8.71;100.00
26489;BME280;14169;43.684;10.484;2023-02-17T08:34:48;103163.56;;;8.73;100.00
26489;BME280;14169;43.684;10.484;2023-02-17T08:37:14;103160.09;;;8.73;100.00
26489;BME280;14169;43.684;10.484;2023-02-17T08:39:39;103157.56;;;8.76;100.00
26489;BME280;14169;43.684;10.484;2023-02-17T08:42:05;103154.09;;;8.78;100.00
26489;BME280;14169;43.684;10.484;2023-02-17T08:44:32;103173.09;;;8.74;100.00
26489;BME280;14169;43.684;10.484;2023-02-17T08:46:59;103176.53;;;8.72;100.00
26489;BME280;14169;43.684;10.484;2023-02-17T08:49:25;103180.78;;;8.68;100.00
26489;BME280;14169;43.684;10.484;2023-02-17T08:51:52;103178.16;;;8.65;100.00
26489;BME280;14169;43.684;10.484;2023-02-17T08:54:18;103183.47;;;8.71;100.00
26489;BME280;14169;43.684;10.484;2023-02-17T08:56:43;103180.88;;;8.73;100.00
26489;BME280;14169;43.684;10.484;2023-02-17T08:59:10;103185.31;;;8.80;100.00
26489;BME280;14169;43.684;10.484;2023-02-17T09:01:36;103176.72;;;8.84;100.00
26489;BME280;14169;43.684;10.484;2023-02-17T09:04:03;103175.06;;;8.90;100.00
26489;BME280;14169;43.684;10.484;2023-02-17T09:06:33;103175.91;;;8.88;100.00
26489;BME280;14169;43.684;10.484;2023-02-17T09:08:59;103182.00;;;8.90;100.00
26489;BME280;14169;43.684;10.484;2023-02-17T09:11:25;103177.72;;;8.95;100.00
26489;BME280;14169;43.684;10.484;2023-02-17T09:13:50;103176.13;;;9.00;100.00
26489;BME280;14169;43.684;10.484;2023-02-17T09:16:16;103187.50;;;9.08;100.00
26489;BME280;14169;43.684;10.484;2023-02-17T09:18:44;103191.06;;;9.16;100.00
26489;BME280;14169;43.684;10.484;2023-02-17T09:21:11;103192.88;;;9.23;100.00
26489;BME280;14169;43.684;10.484;2023-02-17T09:23:38;103188.66;;;9.30;100.00
26489;BME280;14169;43.684;10.484;2023-02-17T09:26:05;103186.13;;;9.37;100.00
26489;BME280;14169;43.684;10.484;2023-02-17T09:28:31;103190.59;;;9.46;100.00
26489;BME280;14169;43.684;10.484;2023-02-17T09:30:58;103190.59;;;9.49;100.00
26489;BME280;14169;43.684;10.484;2023-02-17T09:33:23;103185.47;;;9.55;100.00
26489;BME280;14169;43.684;10.484;2023-02-17T09:35:49;103193.34;;;9.58;100.00
26489;BME280;14169;43.684;10.484;2023-02-17T09:38:15;103197.72;;;9.65;100.00
26489;BME280;14169;43.684;10.484;2023-02-17T09:40:46;103191.78;;;9.73;100.00
26489;BME280;14169;43.684;10.484;2023-02-17T09:43:24;103195.28;;;9.78;100.00
26489;BME280;14169;43.684;10.484;2023-02-17T09:45:54;103192.78;;;9.87;100.00
26489;BME280;14169;43.684;10.484;2023-02-17T09:48:25;103192.91;;;9.99;100.00
26489;BME280;14169;43.684;10.484;2023-02-17T09:51:25;103189.50;;;10.08;100.00
26489;BME280;14169;43.684;10.484;2023-02-17T09:54:15;103191.34;;;10.18;100.00
26489;BME280;14169;43.684;10.484;2023-02-17T09:56:44;103194.91;;;10.28;100.00
26489;BME280;14169;43.684;10.484;2023-02-17T09:59:17;103191.59;;;10.44;100.00
26489;BME280;14169;43.684;10.484;2023-02-17T10:01:45;103189.94;;;10.58;100.00
26489;BME280;14169;43.684;10.484;2023-02-17T10:04:21;103199.59;;;10.68;100.00
26489;BME280;14169;43.684;10.484;2023-02-17T10:09:21;103194.53;;;10.87;100.00
26489;BME280;14169;43.684;10.484;2023-02-17T10:11:58;103198.91;;;10.96;100.00
26489;BME280;14169;43.684;10.484;2023-02-17T10:17:17;103200.75;;;11.14;100.00
26489;BME280;14169;43.684;10.484;2023-02-17T10:22:55;103198.31;;;11.48;100.00
26489;BME280;14169;43.684;10.484;2023-02-17T10:26:09;103207.94;;;11.64;100.00
26489;BME280;14169;43.684;10.484;2023-02-17T10:28:19;103214.94;;;11.83;100.00
26489;BME280;14169;43.684;10.484;2023-02-17T10:30:52;103221.09;;;11.95;100.00
26489;BME280;14169;43.684;10.484;2023-02-17T10:41:37;103237.72;;;12.51;100.00
26489;BME280;14169;43.684;10.484;2023-02-17T10:44:10;103238.59;;;12.67;100.00
26489;BME280;14169;43.684;10.484;2023-02-17T10:46:39;103235.09;;;12.81;100.00
26489;BME280;14169;43.684;10.484;2023-02-17T10:49:25;103235.06;;;12.98;100.00
26489;BME280;14169;43.684;10.484;2023-02-17T10:51:51;103235.91;;;13.10;100.00
26489;BME280;14169;43.684;10.484;2023-02-17T10:54:37;103236.78;;;13.24;100.00
26489;BME280;14169;43.684;10.484;2023-02-17T10:57:07;103234.94;;;13.51;100.00
26489;BME280;14169;43.684;10.484;2023-02-17T10:59:39;103235.72;;;13.71;100.00
26489;BME280;14169;43.684;10.484;2023-02-17T11:04:57;103231.16;;;14.04;100.00
26489;BME280;14169;43.684;10.484;2023-02-17T11:07:39;103228.34;;;14.36;100.00
26489;BME280;14169;43.684;10.484;2023-02-17T11:12:52;103238.66;;;14.59;100.00
26489;BME280;14169;43.684;10.484;2023-02-17T11:15:23;103228.19;;;14.54;100.00
26489;BME280;14169;43.684;10.484;2023-02-17T11:17:50;103226.50;;;14.50;100.00
26489;BME280;14169;43.684;10.484;2023-02-17T11:22:46;103216.94;;;14.42;100.00
26489;BME280;14169;43.684;10.484;2023-02-17T11:27:54;103205.47;;;14.55;100.00
26489;BME280;14169;43.684;10.484;2023-02-17T11:30:21;103195.72;;;14.67;100.00
26489;BME280;14169;43.684;10.484;2023-02-17T11:32:47;103200.88;;;14.78;100.00
26489;BME280;14169;43.684;10.484;2023-02-17T11:37:49;103195.34;;;15.02;100.00
26489;BME280;14169;43.684;10.484;2023-02-17T11:40:29;103192.78;;;14.99;100.00
26489;BME280;14169;43.684;10.484;2023-02-17T11:42:59;103189.28;;;14.95;100.00
26489;BME280;14169;43.684;10.484;2023-02-17T11:45:27;103185.88;;;14.90;100.00
26489;BME280;14169;43.684;10.484;2023-02-17T11:51:16;103189.72;;;14.53;100.00
26489;BME280;14169;43.684;10.484;2023-02-17T11:53:57;103178.53;;;14.35;100.00
26489;BME280;14169;43.684;10.484;2023-02-17T11:56:32;103176.84;;;14.21;100.00
26489;BME280;14169;43.684;10.484;2023-02-17T12:04:32;103166.44;;;14.17;100.00
26489;BME280;14169;43.684;10.484;2023-02-17T12:09:51;103167.13;;;14.40;100.00
26489;BME280;14169;43.684;10.484;2023-02-17T12:14:57;103163.56;;;14.46;100.00
26489;BME280;14169;43.684;10.484;2023-02-17T12:25:40;103148.22;;;14.93;100.00
26489;BME280;14169;43.684;10.484;2023-02-17T12:28:33;103147.47;;;14.82;100.00
26489;BME280;14169;43.684;10.484;2023-02-17T12:31:15;103140.56;;;14.75;100.00
26489;BME280;14169;43.684;10.484;2023-02-17T12:36:26;103139.63;;;14.79;100.00
26489;BME280;14169;43.684;10.484;2023-02-17T12:38:57;103140.56;;;14.75;100.00
26489;BME280;14169;43.684;10.484;2023-02-17T12:43:59;103131.75;;;14.80;100.00
26489;BME280;14169;43.684;10.484;2023-02-17T12:46:28;103119.41;;;14.85;100.00
26489;BME280;14169;43.684;10.484;2023-02-17T12:49:30;103114.94;;;14.93;100.00
26489;BME280;14169;43.684;10.484;2023-02-17T12:52:09;103119.34;;;14.93;100.00
26489;BME280;14169;43.684;10.484;2023-02-17T12:57:18;103116.41;;;14.43;100.00
26489;BME280;14169;43.684;10.484;2023-02-17T12:59:47;103112.97;;;14.35;100.00
26489;BME280;14169;43.684;10.484;2023-02-17T13:02:20;103104.25;;;14.31;100.00
26489;BME280;14169;43.684;10.484;2023-02-17T13:04:59;103099.00;;;14.31;100.00
26489;BME280;14169;43.684;10.484;2023-02-17T13:10:01;103103.50;;;14.15;100.00
26489;BME280;14169;43.684;10.484;2023-02-17T13:15:04;103099.31;;;13.96;100.00
26489;BME280;14169;43.684;10.484;2023-02-17T13:17:37;103096.69;;;13.93;100.00
26489;BME280;14169;43.684;10.484;2023-02-17T13:20:22;103094.91;;;13.98;100.00
26489;BME280;14169;43.684;10.484;2023-02-17T13:22:48;103095.75;;;14.05;100.00
26489;BME280;14169;43.684;10.484;2023-02-17T13:25:30;103093.09;;;14.06;100.00
26489;BME280;14169;43.684;10.484;2023-02-17T13:27:58;103092.28;;;14.00;100.00
26489;BME280;14169;43.684;10.484;2023-02-17T13:30:39;103092.31;;;13.95;100.00
26489;BME280;14169;43.684;10.484;2023-02-17T13:35:45;103091.53;;;13.81;100.00
26489;BME280;14169;43.684;10.484;2023-02-17T13:38:10;103100.38;;;13.70;100.00
26489;BME280;14169;43.684;10.484;2023-02-17T13:40:40;103092.53;;;13.68;100.00
26489;BME280;14169;43.684;10.484;2023-02-17T13:48:22;103093.50;;;13.55;100.00
26489;BME280;14169;43.684;10.484;2023-02-17T13:50:59;103090.03;;;13.50;100.00
26489;BME280;14169;43.684;10.484;2023-02-17T13:56:03;103100.56;;;13.42;100.00
26489;BME280;14169;43.684;10.484;2023-02-17T13:58:35;103092.72;;;13.38;100.00
26489;BME280;14169;43.684;10.484;2023-02-17T14:01:03;103093.66;;;13.31;100.00
26489;BME280;14169;43.684;10.484;2023-02-17T14:06:04;103095.44;;;13.20;100.00
26489;BME280;14169;43.684;10.484;2023-02-17T14:08:37;103097.19;;;13.18;100.00
26489;BME280;14169;43.684;10.484;2023-02-17T14:11:24;103096.31;;;13.14;100.00
26489;BME280;14169;43.684;10.484;2023-02-17T14:13:52;103096.31;;;13.11;100.00
26489;BME280;14169;43.684;10.484;2023-02-17T14:18:47;103098.09;;;13.06;100.00
26489;BME280;14169;43.684;10.484;2023-02-17T14:21:31;103095.50;;;13.05;100.00
26489;BME280;14169;43.684;10.484;2023-02-17T14:23:57;103099.00;;;13.01;100.00
26489;BME280;14169;43.684;10.484;2023-02-17T14:29:08;103109.47;;;12.98;100.00
26489;BME280;14169;43.684;10.484;2023-02-17T14:31:52;103106.00;;;12.97;100.00
26489;BME280;14169;43.684;10.484;2023-02-17T14:34:31;103107.72;;;12.98;100.00
26489;BME280;14169;43.684;10.484;2023-02-17T14:37:23;103106.88;;;12.99;100.00
26489;BME280;14169;43.684;10.484;2023-02-17T14:39:49;103104.25;;;12.95;100.00
26489;BME280;14169;43.684;10.484;2023-02-17T14:42:15;103098.16;;;12.91;100.00
26489;BME280;14169;43.684;10.484;2023-02-17T14:44:41;103111.25;;;12.88;100.00
26489;BME280;14169;43.684;10.484;2023-02-17T14:47:07;103111.25;;;12.88;100.00
26489;BME280;14169;43.684;10.484;2023-02-17T14:49:32;103106.91;;;12.87;100.00
26489;BME280;14169;43.684;10.484;2023-02-17T14:51:58;103106.00;;;12.88;100.00
26489;BME280;14169;43.684;10.484;2023-02-17T14:54:23;103108.63;;;12.88;100.00
26489;BME280;14169;43.684;10.484;2023-02-17T14:59:17;103105.16;;;12.89;100.00
26489;BME280;14169;43.684;10.484;2023-02-17T15:01:42;103104.28;;;12.87;100.00